createdAt,value
2019-04-29T00:02:44.942Z,2.47
2019-04-29T00:05:15.957Z,2.53
2019-04-29T00:07:46.430Z,2.20
2019-04-29T00:10:21.321Z,2.37
2019-04-29T00:12:52.071Z,2.30
2019-04-29T00:15:40.138Z,2.33
2019-04-29T00:18:16.363Z,2.50
2019-04-29T00:20:48.952Z,2.47
2019-04-29T00:23:19.487Z,2.50
2019-04-29T00:25:50.129Z,2.60
2019-04-29T00:28:20.681Z,2.60
2019-04-29T00:30:51.780Z,2.63
2019-04-29T00:33:23.639Z,2.63
2019-04-29T00:35:54.168Z,2.93
2019-04-29T00:38:42.858Z,2.70
2019-04-29T00:41:22.667Z,2.70
2019-04-29T00:43:56.026Z,2.67
2019-04-29T00:46:26.699Z,2.57
2019-04-29T00:48:57.224Z,2.80
2019-04-29T00:51:27.957Z,3.10
2019-04-29T00:54:04.094Z,3.20
2019-04-29T00:56:34.973Z,2.77
2019-04-29T00:59:05.860Z,3.00
2019-04-29T01:01:36.603Z,3.10
2019-04-29T01:04:07.215Z,3.03
2019-04-29T01:06:38.101Z,2.80
2019-04-29T01:09:14.165Z,3.23
2019-04-29T01:11:44.938Z,2.90
2019-04-29T01:14:15.674Z,3.03
2019-04-29T01:16:49.131Z,3.33
2019-04-29T01:19:20.055Z,2.57
2019-04-29T01:21:50.625Z,3.43
2019-04-29T01:24:21.277Z,3.30
2019-04-29T01:27:03.153Z,3.20
2019-04-29T01:29:33.848Z,2.53
2019-04-29T01:32:05.870Z,3.40
2019-04-29T01:34:43.419Z,2.97
2019-04-29T01:37:14.186Z,2.73
2019-04-29T01:39:53.543Z,2.87
2019-04-29T01:42:30.597Z,2.60
2019-04-29T01:45:01.119Z,3.30
2019-04-29T01:47:31.685Z,2.30
2019-04-29T01:50:02.586Z,3.00
2019-04-29T01:52:34.229Z,2.67
2019-04-29T01:55:05.496Z,2.73
2019-04-29T01:57:36.076Z,2.70
2019-04-29T02:00:12.139Z,2.70
2019-04-29T02:02:41.427Z,2.83
2019-04-29T02:05:12.030Z,2.60
2019-04-29T02:07:42.528Z,2.47
2019-04-29T02:10:40.946Z,2.93
2019-04-29T02:13:11.937Z,2.50
2019-04-29T02:15:42.452Z,2.53
2019-04-29T02:18:12.975Z,2.70
2019-04-29T02:20:43.638Z,2.33
2019-04-29T02:23:33.343Z,2.47
2019-04-29T02:26:03.884Z,2.30
2019-04-29T02:28:36.269Z,2.40
2019-04-29T02:31:24.616Z,2.40
2019-04-29T02:33:55.168Z,2.90
2019-04-29T02:36:29.720Z,2.90
2019-04-29T02:39:07.116Z,3.13
2019-04-29T02:41:45.095Z,3.03
2019-04-29T02:44:15.755Z,3.10
2019-04-29T02:46:46.277Z,3.07
2019-04-29T02:49:16.783Z,3.37
2019-04-29T02:51:52.575Z,3.10
2019-04-29T02:54:24.898Z,3.60
2019-04-29T02:57:02.039Z,3.27
2019-04-29T02:59:36.786Z,3.70
2019-04-29T03:02:27.210Z,3.80
2019-04-29T03:05:16.050Z,3.57
2019-04-29T03:07:47.198Z,3.73
2019-04-29T03:10:17.908Z,3.63
2019-04-29T03:12:49.900Z,3.80
2019-04-29T03:15:29.084Z,3.57
2019-04-29T03:18:00.010Z,3.13
2019-04-29T03:20:36.168Z,3.67
2019-04-29T03:23:12.776Z,4.17
2019-04-29T03:25:45.344Z,3.60
2019-04-29T03:28:15.807Z,4.00
2019-04-29T03:30:46.863Z,3.67
2019-04-29T03:33:18.516Z,4.50
2019-04-29T03:35:49.055Z,4.27
2019-04-29T03:38:20.405Z,4.13
2019-04-29T03:40:51.095Z,3.37
2019-04-29T03:43:21.947Z,3.93
2019-04-29T03:45:52.862Z,5.10
2019-04-29T03:48:23.604Z,4.60
2019-04-29T03:50:55.351Z,4.20
2019-04-29T03:53:28.377Z,4.10
2019-04-29T03:55:58.371Z,4.30
2019-04-29T03:58:29.025Z,4.30
2019-04-29T04:01:07.417Z,4.40
2019-04-29T04:03:47.899Z,4.27
2019-04-29T04:06:46.357Z,4.97
2019-04-29T04:09:19.437Z,4.23
2019-04-29T04:11:49.963Z,4.70
2019-04-29T04:14:20.711Z,4.30
2019-04-29T04:17:20.270Z,4.60
2019-04-29T04:19:49.038Z,4.63
2019-04-29T04:22:19.614Z,4.87
2019-04-29T04:24:52.389Z,5.20
2019-04-29T04:27:23.030Z,5.50
2019-04-29T04:29:53.526Z,5.27
2019-04-29T04:32:24.355Z,5.47
2019-04-29T04:34:54.939Z,5.67
2019-04-29T04:37:25.619Z,5.43
2019-04-29T04:39:58.258Z,5.67
2019-04-29T04:42:30.008Z,5.30
2019-04-29T04:45:01.069Z,5.80
2019-04-29T04:47:31.688Z,5.93
2019-04-29T04:50:02.239Z,5.17
2019-04-29T04:52:34.734Z,6.37
2019-04-29T04:55:06.051Z,5.33
2019-04-29T04:57:36.535Z,5.93
2019-04-29T05:00:09.335Z,5.90
2019-04-29T05:02:39.875Z,6.40
2019-04-29T05:05:10.677Z,6.40
2019-04-29T05:07:41.515Z,6.70
2019-04-29T05:10:12.365Z,6.17
2019-04-29T05:12:43.065Z,6.13
2019-04-29T05:15:13.769Z,5.53
2019-04-29T05:17:44.313Z,5.77
2019-04-29T05:20:15.584Z,6.17
2019-04-29T05:23:01.988Z,5.60
2019-04-29T05:25:35.068Z,5.87
2019-04-29T05:28:05.770Z,5.63
2019-04-29T05:30:36.731Z,6.30
2019-04-29T05:33:07.366Z,5.73
2019-04-29T05:35:56.894Z,5.60
2019-04-29T05:38:40.543Z,6.10
2019-04-29T05:41:11.211Z,5.60
2019-04-29T05:43:47.506Z,5.80
2019-04-29T05:46:40.781Z,6.10
2019-04-29T05:49:13.168Z,6.43
2019-04-29T05:52:07.591Z,6.33
2019-04-29T05:54:38.221Z,5.87
2019-04-29T05:57:08.852Z,6.03
2019-04-29T05:59:43.320Z,6.40
2019-04-29T06:02:12.087Z,6.30
2019-04-29T06:04:42.754Z,6.03
2019-04-29T06:07:16.840Z,6.30
2019-04-29T06:09:45.688Z,7.40
2019-04-29T06:12:16.864Z,6.40
2019-04-29T06:14:47.451Z,5.93
2019-04-29T06:17:18.531Z,6.40
2019-04-29T06:19:49.055Z,5.97
2019-04-29T06:22:19.655Z,5.67
2019-04-29T06:24:50.382Z,5.33
2019-04-29T06:27:20.923Z,5.50
2019-04-29T06:29:51.780Z,5.60
2019-04-29T06:32:24.958Z,5.17
2019-04-29T06:34:54.632Z,5.17
2019-04-29T06:37:27.009Z,5.83
2019-04-29T06:39:58.150Z,5.43
2019-04-29T06:42:28.687Z,5.30
2019-04-29T06:44:59.407Z,5.87
2019-04-29T06:47:31.348Z,5.27
2019-04-29T06:50:03.761Z,5.70
2019-04-29T06:52:36.005Z,6.00
2019-04-29T06:55:08.577Z,4.33
2019-04-29T06:57:39.098Z,5.23
2019-04-29T07:00:09.745Z,5.03
2019-04-29T07:02:40.259Z,5.50
2019-04-29T07:05:10.848Z,5.70
2019-04-29T07:07:41.608Z,4.70
2019-04-29T07:10:12.191Z,4.67
2019-04-29T07:12:47.176Z,5.73
2019-04-29T07:15:16.843Z,5.30
2019-04-29T07:17:47.478Z,4.60
2019-04-29T07:20:18.008Z,5.77
2019-04-29T07:22:48.641Z,4.67
2019-04-29T07:25:24.779Z,5.13
2019-04-29T07:27:53.358Z,4.63
2019-04-29T07:30:24.117Z,4.60
2019-04-29T07:32:54.672Z,4.40
2019-04-29T07:35:25.303Z,5.10
2019-04-29T07:37:57.538Z,5.20
2019-04-29T07:40:28.279Z,5.20
2019-04-29T07:43:02.935Z,4.83
2019-04-29T07:45:44.247Z,4.50
2019-04-29T07:48:13.378Z,4.83
2019-04-29T07:50:45.290Z,4.50
2019-04-29T07:53:16.177Z,5.20
2019-04-29T07:55:46.979Z,5.90
2019-04-29T07:58:23.000Z,5.30
2019-04-29T08:00:56.158Z,4.70
2019-04-29T08:03:27.626Z,4.50
2019-04-29T08:05:59.146Z,5.30
2019-04-29T08:08:32.755Z,5.03
2019-04-29T08:11:04.502Z,4.63
2019-04-29T08:13:37.071Z,5.00
2019-04-29T08:16:07.578Z,4.70
2019-04-29T08:18:38.099Z,5.70
2019-04-29T08:21:10.247Z,5.27
2019-04-29T08:23:42.408Z,5.10
2019-04-29T08:26:14.094Z,5.10
2019-04-29T08:28:45.382Z,5.30
2019-04-29T08:31:16.572Z,4.40
2019-04-29T08:33:48.500Z,4.47
2019-04-29T08:36:19.064Z,4.67
2019-04-29T08:38:49.770Z,4.30
2019-04-29T08:41:21.035Z,4.10
2019-04-29T08:44:16.234Z,4.33
2019-04-29T08:46:56.706Z,4.50
2019-04-29T08:49:27.549Z,4.97
2019-04-29T08:51:59.115Z,4.40
2019-04-29T08:54:29.729Z,4.53
2019-04-29T08:57:03.887Z,3.80
2019-04-29T08:59:33.079Z,4.10
2019-04-29T09:02:10.219Z,4.77
2019-04-29T09:04:52.526Z,4.00
2019-04-29T09:07:12.847Z,4.80
2019-04-29T09:09:43.660Z,3.50
2019-04-29T09:12:14.433Z,4.10
2019-04-29T09:14:47.007Z,4.77
2019-04-29T09:17:20.481Z,4.20
2019-04-29T09:19:51.476Z,4.40
2019-04-29T09:22:25.479Z,4.47
2019-04-29T09:25:30.515Z,2.83
2019-04-29T09:28:04.330Z,2.30
2019-04-29T09:30:36.918Z,2.00
2019-04-29T09:33:13.082Z,1.60
2019-04-29T09:35:42.548Z,1.57
2019-04-29T09:38:14.113Z,1.60
2019-04-29T09:40:54.600Z,2.50
2019-04-29T09:43:32.874Z,2.13
2019-04-29T09:46:06.729Z,2.10
2019-04-29T09:48:37.333Z,2.17
2019-04-29T09:51:17.163Z,1.73
2019-04-29T09:53:40.371Z,2.20
2019-04-29T09:56:10.940Z,2.23
2019-04-29T09:58:41.650Z,1.50
2019-04-29T10:01:32.219Z,1.90
2019-04-29T10:04:20.453Z,2.43
2019-04-29T10:06:53.361Z,2.10
2019-04-29T10:09:24.058Z,2.30
2019-04-29T10:11:55.031Z,2.50
2019-04-29T10:14:25.752Z,2.90
2019-04-29T10:17:18.079Z,3.77
2019-04-29T10:20:03.254Z,2.53
2019-04-29T10:22:34.458Z,2.07
2019-04-29T10:25:07.084Z,2.20
2019-04-29T10:27:37.633Z,2.40
2019-04-29T10:30:08.561Z,2.50
2019-04-29T10:32:42.509Z,2.47
2019-04-29T10:35:12.876Z,1.93
2019-04-29T10:37:43.353Z,1.67
2019-04-29T10:40:25.979Z,1.80
2019-04-29T10:43:15.524Z,2.00
2019-04-29T10:46:09.990Z,1.70
2019-04-29T10:48:46.845Z,1.60
2019-04-29T10:51:17.616Z,1.97
2019-04-29T10:53:51.052Z,1.90
2019-04-29T10:56:20.639Z,2.00
2019-04-29T10:59:12.053Z,1.73
2019-04-29T11:02:21.304Z,1.97
2019-04-29T11:04:53.990Z,1.50
2019-04-29T11:07:37.934Z,1.77
2019-04-29T11:10:28.610Z,2.20
2019-04-29T11:12:59.572Z,1.87
2019-04-29T11:15:35.669Z,1.50
2019-04-29T11:18:06.949Z,1.73
2019-04-29T11:20:37.811Z,1.60
2019-04-29T11:23:18.056Z,1.90
2019-04-29T11:25:57.830Z,2.00
2019-04-29T11:28:29.015Z,2.40
2019-04-29T11:31:01.159Z,2.20
2019-04-29T11:33:39.968Z,1.60
2019-04-29T11:36:12.830Z,2.90
2019-04-29T11:38:43.754Z,2.50
2019-04-29T11:41:19.809Z,2.93
2019-04-29T11:43:51.125Z,2.97
2019-04-29T11:46:21.237Z,2.23
2019-04-29T11:48:53.331Z,2.70
2019-04-29T11:51:34.105Z,2.90
2019-04-29T11:54:01.824Z,2.27
2019-04-29T11:56:32.325Z,2.47
2019-04-29T11:59:09.287Z,3.00
2019-04-29T12:01:59.782Z,2.57
2019-04-29T12:04:35.130Z,2.80
2019-04-29T12:07:05.664Z,2.27
2019-04-29T12:09:36.270Z,2.37
2019-04-29T12:12:12.897Z,3.20
2019-04-29T12:14:50.147Z,2.60
2019-04-29T12:17:54.622Z,2.37
2019-04-29T12:20:35.574Z,1.90
2019-04-29T12:23:06.125Z,2.20
2019-04-29T12:25:36.688Z,2.40
2019-04-29T12:28:18.913Z,2.40
2019-04-29T12:30:41.939Z,2.20
2019-04-29T12:33:20.633Z,2.40
2019-04-29T12:36:03.412Z,1.73
2019-04-29T12:38:52.830Z,1.97
2019-04-29T12:41:48.593Z,1.90
2019-04-29T12:44:35.485Z,2.10
2019-04-29T12:47:26.729Z,2.23
2019-04-29T12:49:55.604Z,1.50
2019-04-29T12:52:26.374Z,2.00
2019-04-29T12:54:57.046Z,1.90
2019-04-29T12:57:27.805Z,1.90
2019-04-29T12:59:58.610Z,1.80
2019-04-29T13:02:55.591Z,2.03
2019-04-29T13:05:39.332Z,1.70
2019-04-29T13:08:20.517Z,1.90
2019-04-29T13:11:00.097Z,2.10
2019-04-29T13:13:30.686Z,2.50
2019-04-29T13:16:32.749Z,2.50
2019-04-29T13:19:11.893Z,2.47
2019-04-29T13:21:41.925Z,2.20
2019-04-29T13:24:22.395Z,2.37
2019-04-29T13:26:45.002Z,2.50
2019-04-29T13:29:26.909Z,2.63
2019-04-29T13:31:47.742Z,3.47
2019-04-29T13:34:25.042Z,2.30
2019-04-29T13:37:06.805Z,2.33
2019-04-29T13:39:39.122Z,2.70
2019-04-29T13:42:08.345Z,2.50
2019-04-29T13:44:41.344Z,2.50
2019-04-29T13:47:40.120Z,2.63
2019-04-29T13:50:39.923Z,2.07
2019-04-29T13:53:05.030Z,1.90
2019-04-29T13:55:47.916Z,2.43
2019-04-29T13:58:07.663Z,2.30
2019-04-29T14:00:59.884Z,1.90
2019-04-29T14:03:47.124Z,1.83
2019-04-29T14:06:18.647Z,2.30
2019-04-29T14:08:50.332Z,1.67
2019-04-29T14:11:22.012Z,1.57
2019-04-29T14:13:53.225Z,2.20
2019-04-29T14:16:23.745Z,2.03
2019-04-29T14:18:54.300Z,1.40
2019-04-29T14:21:25.731Z,1.60
2019-04-29T14:23:56.962Z,1.60
2019-04-29T14:26:29.489Z,1.57
2019-04-29T14:28:59.697Z,1.23
2019-04-29T14:31:30.408Z,1.50
2019-04-29T14:34:06.106Z,1.40
2019-04-29T14:36:36.591Z,1.70
2019-04-29T14:39:13.102Z,1.80
2019-04-29T14:41:45.118Z,1.90
2019-04-29T14:44:40.299Z,1.63
2019-04-29T14:47:29.223Z,2.43
2019-04-29T14:50:01.664Z,1.67
2019-04-29T14:52:32.262Z,1.43
2019-04-29T14:55:02.815Z,1.73
2019-04-29T14:57:33.734Z,1.43
2019-04-29T15:00:06.322Z,2.13
2019-04-29T15:02:36.763Z,2.43
2019-04-29T15:05:12.209Z,1.53
2019-04-29T15:07:39.757Z,2.00
2019-04-29T15:10:11.792Z,2.00
2019-04-29T15:12:51.879Z,1.93
2019-04-29T15:16:04.887Z,2.17
2019-04-29T15:18:51.131Z,2.60
2019-04-29T15:21:32.758Z,2.30
2019-04-29T15:24:01.019Z,1.90
2019-04-29T15:26:31.502Z,2.30
2019-04-29T15:29:02.047Z,2.10
2019-04-29T15:31:32.559Z,2.00
2019-04-29T15:34:03.109Z,2.53
2019-04-29T15:36:34.883Z,2.77
2019-04-29T15:39:11.161Z,2.83
2019-04-29T15:41:41.185Z,2.80
2019-04-29T15:44:19.080Z,2.33
2019-04-29T15:46:47.195Z,3.00
2019-04-29T15:49:16.024Z,3.57
2019-04-29T15:51:49.329Z,4.47
2019-04-29T15:54:18.852Z,3.80
2019-04-29T15:56:49.671Z,3.90
2019-04-29T15:59:20.139Z,4.00
2019-04-29T16:01:51.255Z,4.20
2019-04-29T16:04:32.210Z,3.83
2019-04-29T16:07:25.212Z,3.90
2019-04-29T16:10:20.536Z,4.27
2019-04-29T16:12:51.101Z,3.33
2019-04-29T16:15:23.110Z,3.17
2019-04-29T16:17:54.333Z,3.37
2019-04-29T16:20:24.958Z,3.10
2019-04-29T16:23:00.643Z,3.20
2019-04-29T16:25:28.100Z,2.43
2019-04-29T16:27:58.704Z,2.90
2019-04-29T16:30:31.916Z,3.03
2019-04-29T16:33:13.410Z,3.40
2019-04-29T16:35:35.158Z,2.70
2019-04-29T16:38:11.180Z,3.10
2019-04-29T16:40:42.059Z,2.60
2019-04-29T16:43:19.110Z,2.50
2019-04-29T16:46:06.789Z,2.90
2019-04-29T16:48:37.295Z,3.30
2019-04-29T16:51:14.586Z,2.87
2019-04-29T16:53:41.466Z,3.80
2019-04-29T16:56:16.063Z,3.10
2019-04-29T16:58:44.360Z,3.00
2019-04-29T17:01:14.921Z,2.80
2019-04-29T17:03:45.588Z,3.50
2019-04-29T17:06:16.161Z,3.57
2019-04-29T17:09:08.641Z,2.60
2019-04-29T17:11:39.541Z,3.60
2019-04-29T17:14:12.874Z,3.30
2019-04-29T17:16:42.261Z,4.60
2019-04-29T17:19:12.739Z,3.60
2019-04-29T17:21:43.320Z,3.33
2019-04-29T17:24:13.959Z,4.00
2019-04-29T17:27:06.274Z,7.63
2019-04-29T17:29:59.974Z,9.10
2019-04-29T17:32:47.081Z,10.60
2019-04-29T17:35:21.335Z,9.97
2019-04-29T17:37:47.237Z,8.70
2019-04-29T17:40:19.378Z,9.03
2019-04-29T17:42:55.285Z,7.80
2019-04-29T17:45:33.802Z,5.57
2019-04-29T17:48:26.072Z,6.53
2019-04-29T17:51:01.172Z,4.97
2019-04-29T17:53:36.228Z,5.20
2019-04-29T17:56:25.328Z,5.90
2019-04-29T17:58:59.967Z,5.90
2019-04-29T18:01:51.063Z,5.53
2019-04-29T18:04:37.257Z,6.33
2019-04-29T18:07:29.470Z,6.40
2019-04-29T18:10:06.833Z,6.13
2019-04-29T18:12:40.959Z,8.03
2019-04-29T18:15:17.682Z,7.40
2019-04-29T18:17:45.438Z,8.83
2019-04-29T18:20:35.673Z,8.63
2019-04-29T18:23:40.274Z,7.23
2019-04-29T18:26:16.829Z,5.80
2019-04-29T18:28:47.309Z,6.07
2019-04-29T18:31:17.778Z,5.17
2019-04-29T18:33:48.216Z,4.50
2019-04-29T18:36:23.599Z,5.13
2019-04-29T18:38:52.189Z,5.23
2019-04-29T18:41:28.016Z,4.70
2019-04-29T18:43:57.829Z,5.30
2019-04-29T18:46:27.365Z,5.20
2019-04-29T18:49:03.110Z,5.60
2019-04-29T18:51:31.345Z,7.03
2019-04-29T18:54:02.889Z,5.77
2019-04-29T18:56:36.338Z,5.10
2019-04-29T18:59:05.522Z,5.63
2019-04-29T19:01:36.034Z,5.67
2019-04-29T19:04:16.747Z,6.27
2019-04-29T19:06:44.393Z,6.20
2019-04-29T19:09:20.132Z,6.47
2019-04-29T19:11:49.275Z,5.17
2019-04-29T19:14:20.652Z,5.20
2019-04-29T19:16:52.803Z,5.50
2019-04-29T19:19:25.311Z,5.40
2019-04-29T19:21:55.931Z,4.90
2019-04-29T19:24:27.545Z,4.73
2019-04-29T19:27:00.775Z,4.87
2019-04-29T19:29:30.460Z,5.07
2019-04-29T19:32:01.222Z,5.10
2019-04-29T19:34:42.330Z,5.20
2019-04-29T19:37:05.164Z,5.40
2019-04-29T19:39:36.490Z,5.70
2019-04-29T19:42:07.416Z,5.93
2019-04-29T19:44:38.543Z,5.17
2019-04-29T19:47:10.980Z,5.87
2019-04-29T19:49:44.700Z,5.63
2019-04-29T19:52:19.038Z,4.80
2019-04-29T19:54:48.133Z,5.53
2019-04-29T19:57:19.002Z,5.87
2019-04-29T19:59:53.181Z,5.20
2019-04-29T20:02:25.601Z,6.10
2019-04-29T20:05:07.684Z,6.47
2019-04-29T20:07:42.162Z,4.90
2019-04-29T20:10:11.324Z,5.60
2019-04-29T20:12:46.180Z,5.47
2019-04-29T20:15:16.462Z,4.43
2019-04-29T20:18:10.946Z,4.40
2019-04-29T20:20:46.250Z,4.60
2019-04-29T20:23:24.860Z,5.20
2019-04-29T20:25:50.426Z,4.60
2019-04-29T20:28:21.602Z,4.83
2019-04-29T20:30:57.018Z,4.60
2019-04-29T20:33:24.649Z,5.00
2019-04-29T20:35:57.072Z,4.60
2019-04-29T20:38:29.905Z,4.97
2019-04-29T20:41:00.600Z,4.60
2019-04-29T20:43:31.193Z,4.87
2019-04-29T20:46:02.758Z,4.63
2019-04-29T20:48:36.743Z,5.10
2019-04-29T20:51:13.576Z,5.13
2019-04-29T20:53:46.737Z,4.90
2019-04-29T20:56:24.616Z,4.63
2019-04-29T20:58:49.695Z,4.87
2019-04-29T21:01:36.466Z,4.80
2019-04-29T21:04:06.230Z,4.27
2019-04-29T21:06:43.871Z,5.00
2019-04-29T21:09:10.571Z,4.50
2019-04-29T21:12:09.304Z,4.90
2019-04-29T21:14:46.332Z,4.60
2019-04-29T21:17:32.720Z,4.17
2019-04-29T21:20:05.094Z,5.23
2019-04-29T21:22:35.750Z,4.73
2019-04-29T21:25:06.327Z,4.47
2019-04-29T21:27:36.857Z,4.90
2019-04-29T21:30:07.561Z,5.23
2019-04-29T21:32:39.031Z,5.07
2019-04-29T21:35:26.909Z,4.60
2019-04-29T21:38:17.789Z,4.53
2019-04-29T21:40:53.080Z,4.20
2019-04-29T21:43:26.314Z,5.20
2019-04-29T21:45:59.391Z,4.83
2019-04-29T21:48:33.445Z,4.83
2019-04-29T21:51:01.482Z,5.17
2019-04-29T21:53:36.530Z,5.60
2019-04-29T21:56:09.085Z,5.20
2019-04-29T21:58:36.331Z,5.73
2019-04-29T22:01:07.387Z,6.10
2019-04-29T22:03:38.414Z,6.60
2019-04-29T22:06:08.975Z,6.70
2019-04-29T22:08:39.736Z,6.90
2019-04-29T22:11:10.270Z,5.80
2019-04-29T22:13:40.952Z,6.43
2019-04-29T22:16:15.928Z,6.77
2019-04-29T22:18:44.526Z,6.90
2019-04-29T22:21:21.870Z,6.17
2019-04-29T22:23:51.088Z,5.87
2019-04-29T22:26:23.195Z,5.20
2019-04-29T22:28:53.485Z,5.33
2019-04-29T22:31:26.938Z,6.17
2019-04-29T22:33:57.529Z,5.80
2019-04-29T22:36:27.938Z,6.27
2019-04-29T22:38:58.502Z,6.07
2019-04-29T22:41:54.238Z,6.50
2019-04-29T22:44:25.890Z,7.07
2019-04-29T22:46:56.556Z,6.60
2019-04-29T22:49:29.177Z,6.90
2019-04-29T22:51:59.290Z,7.00
2019-04-29T22:54:29.775Z,6.77
2019-04-29T22:57:00.318Z,7.13
2019-04-29T22:59:30.923Z,7.33
2019-04-29T23:02:01.559Z,6.77
2019-04-29T23:04:32.046Z,7.17
2019-04-29T23:07:02.688Z,6.30
2019-04-29T23:09:33.249Z,6.77
2019-04-29T23:12:05.401Z,7.13
2019-04-29T23:14:36.160Z,7.30
2019-04-29T23:17:12.047Z,7.13
2019-04-29T23:19:38.986Z,6.57
2019-04-29T23:22:26.166Z,6.50
2019-04-29T23:25:02.120Z,7.07
2019-04-29T23:27:32.647Z,7.20
2019-04-29T23:30:03.266Z,7.70
2019-04-29T23:32:35.182Z,7.17
2019-04-29T23:35:09.741Z,7.20
2019-04-29T23:37:38.984Z,7.57
2019-04-29T23:40:10.255Z,7.23
2019-04-29T23:42:43.723Z,7.27
2019-04-29T23:45:14.584Z,7.70
2019-04-29T23:47:46.951Z,6.83
2019-04-29T23:50:20.242Z,6.93
2019-04-29T23:52:52.046Z,7.50
2019-04-29T23:55:27.428Z,7.60
2019-04-29T23:58:13.730Z,6.57
